createdAt,value
2023-05-19T00:01:50.757Z,17.11
2023-05-19T00:04:19.210Z,17.30
2023-05-19T00:06:51.296Z,17.27
2023-05-19T00:09:19.597Z,17.30
2023-05-19T00:11:47.854Z,17.11
2023-05-19T00:14:16.288Z,17.22
2023-05-19T00:16:44.603Z,17.14
2023-05-19T00:19:12.698Z,17.18
2023-05-19T00:21:40.728Z,17.04
2023-05-19T00:24:08.838Z,17.10
2023-05-19T00:26:37.397Z,17.22
2023-05-19T00:29:06.511Z,17.26
2023-05-19T00:31:34.685Z,17.12
2023-05-19T00:34:03.040Z,17.03
2023-05-19T00:36:31.254Z,17.22
2023-05-19T00:38:59.288Z,17.15
2023-05-19T00:41:27.319Z,17.22
2023-05-19T00:43:55.634Z,17.05
2023-05-19T00:46:23.856Z,17.07
2023-05-19T00:48:51.973Z,17.03
2023-05-19T00:51:20.341Z,17.06
2023-05-19T00:53:51.165Z,17.00
2023-05-19T00:56:20.113Z,17.18
2023-05-19T00:58:50.522Z,17.12
2023-05-19T01:01:21.842Z,17.03
2023-05-19T01:03:51.683Z,17.19
2023-05-19T01:06:21.196Z,17.13
2023-05-19T01:08:52.061Z,17.08
2023-05-19T01:11:22.584Z,17.11
2023-05-19T01:13:50.809Z,17.23
2023-05-19T01:16:22.749Z,17.04
2023-05-19T01:19:15.654Z,16.93
2023-05-19T01:22:02.315Z,17.16
2023-05-19T01:24:41.859Z,16.91
2023-05-19T01:27:15.687Z,16.86
2023-05-19T01:30:05.301Z,16.91
2023-05-19T01:32:34.933Z,17.03
2023-05-19T01:35:05.728Z,16.92
2023-05-19T01:37:34.929Z,17.08
2023-05-19T01:40:03.089Z,17.01
2023-05-19T01:42:37.625Z,16.97
2023-05-19T01:45:10.721Z,16.88
2023-05-19T01:47:43.141Z,16.82
2023-05-19T01:50:11.510Z,16.93
2023-05-19T01:52:39.520Z,16.82
2023-05-19T01:55:09.734Z,16.85
2023-05-19T01:57:53.870Z,16.92
2023-05-19T02:01:01.766Z,17.01
2023-05-19T02:04:19.008Z,16.91
2023-05-19T02:07:13.252Z,16.84
2023-05-19T02:10:02.969Z,16.83
2023-05-19T02:12:38.238Z,16.73
2023-05-19T02:15:24.697Z,16.79
2023-05-19T02:17:55.806Z,16.81
2023-05-19T02:20:23.918Z,16.76
2023-05-19T02:25:19.871Z,16.69
2023-05-19T02:27:49.344Z,16.63
2023-05-19T02:30:17.345Z,16.75
2023-05-19T02:32:46.999Z,16.67
2023-05-19T02:35:15.149Z,16.70
2023-05-19T02:37:43.699Z,16.73
2023-05-19T02:40:11.840Z,16.65
2023-05-19T02:42:39.781Z,16.58
2023-05-19T02:45:08.555Z,16.48
2023-05-19T02:47:37.278Z,16.48
2023-05-19T02:50:06.715Z,16.53
2023-05-19T02:52:34.848Z,16.45
2023-05-19T02:55:02.921Z,16.48
2023-05-19T02:57:31.932Z,16.48
2023-05-19T03:00:00.004Z,16.51
2023-05-19T03:02:27.961Z,16.61
2023-05-19T03:04:56.080Z,16.44
2023-05-19T03:07:25.514Z,16.34
2023-05-19T03:09:53.749Z,16.36
2023-05-19T03:12:22.074Z,16.45
2023-05-19T03:14:50.281Z,16.42
2023-05-19T03:17:18.378Z,16.47
2023-05-19T03:19:46.551Z,16.48
2023-05-19T03:22:14.619Z,16.43
2023-05-19T03:24:42.610Z,16.43
2023-05-19T03:27:12.525Z,16.39
2023-05-19T03:29:40.883Z,16.49
2023-05-19T03:32:08.879Z,16.38
2023-05-19T03:34:37.335Z,16.39
2023-05-19T03:37:05.304Z,16.39
2023-05-19T03:39:34.460Z,16.48
2023-05-19T03:42:02.521Z,16.36
2023-05-19T03:44:30.903Z,16.30
2023-05-19T03:47:01.141Z,16.28
2023-05-19T03:49:55.350Z,16.11
2023-05-19T03:52:49.649Z,16.08
2023-05-19T03:55:33.118Z,16.00
2023-05-19T03:58:01.449Z,16.21
2023-05-19T04:00:29.619Z,16.12
2023-05-19T04:02:57.746Z,15.98
2023-05-19T04:05:25.974Z,15.77
2023-05-19T04:07:55.007Z,15.76
2023-05-19T04:10:24.577Z,15.85
2023-05-19T04:12:52.863Z,15.85
2023-05-19T04:15:21.539Z,15.79
2023-05-19T04:17:49.581Z,15.97
2023-05-19T04:20:17.605Z,15.67
2023-05-19T04:22:45.493Z,15.78
2023-05-19T04:25:13.607Z,15.78
2023-05-19T04:27:41.640Z,16.03
2023-05-19T04:30:09.955Z,16.27
2023-05-19T04:32:39.937Z,16.58
2023-05-19T04:35:11.303Z,16.86
2023-05-19T04:37:40.826Z,16.77
2023-05-19T04:40:12.058Z,17.02
2023-05-19T04:42:42.899Z,17.08
2023-05-19T04:45:14.200Z,17.38
2023-05-19T04:47:47.013Z,17.47
2023-05-19T04:50:16.639Z,17.53
2023-05-19T04:52:47.890Z,17.41
2023-05-19T04:55:17.341Z,17.22
2023-05-19T04:57:46.103Z,17.36
2023-05-19T05:00:14.804Z,17.28
2023-05-19T05:02:53.545Z,17.48
2023-05-19T05:05:22.815Z,17.31
2023-05-19T05:07:54.298Z,17.52
2023-05-19T05:10:27.148Z,17.56
2023-05-19T05:12:55.702Z,17.51
2023-05-19T05:15:24.575Z,17.53
2023-05-19T05:17:53.096Z,17.39
2023-05-19T05:20:22.656Z,17.45
2023-05-19T05:22:51.564Z,17.45
2023-05-19T05:25:20.783Z,17.79
2023-05-19T05:27:49.947Z,17.77
2023-05-19T05:30:19.733Z,17.73
2023-05-19T05:32:48.388Z,17.76
2023-05-19T05:35:31.085Z,17.65
2023-05-19T05:38:02.113Z,17.65
2023-05-19T05:40:30.469Z,17.62
2023-05-19T05:43:01.388Z,17.57
2023-05-19T05:45:33.261Z,17.62
2023-05-19T05:48:02.961Z,17.84
2023-05-19T05:50:32.586Z,17.83
2023-05-19T05:53:01.721Z,17.69
2023-05-19T05:55:30.346Z,17.92
2023-05-19T05:58:02.447Z,18.09
2023-05-19T06:00:31.061Z,18.09
2023-05-19T06:02:59.610Z,17.92
2023-05-19T06:05:27.758Z,18.02
2023-05-19T06:07:56.340Z,17.99
2023-05-19T06:10:28.670Z,17.98
2023-05-19T06:12:57.132Z,18.02
2023-05-19T06:15:26.521Z,18.03
2023-05-19T06:18:20.883Z,18.12
2023-05-19T06:20:49.606Z,18.18
2023-05-19T06:23:17.718Z,18.26
2023-05-19T06:25:46.329Z,18.20
2023-05-19T06:28:15.012Z,17.63
2023-05-19T06:30:42.957Z,17.38
2023-05-19T06:33:21.458Z,17.42
2023-05-19T06:35:49.870Z,17.33
2023-05-19T06:38:18.281Z,17.75
2023-05-19T06:40:46.243Z,17.24
2023-05-19T06:43:14.990Z,17.25
2023-05-19T06:45:54.772Z,17.34
2023-05-19T06:48:24.200Z,17.42
2023-05-19T06:50:52.488Z,17.66
2023-05-19T06:53:24.055Z,17.45
2023-05-19T06:55:58.826Z,17.63
2023-05-19T06:58:29.120Z,17.58
2023-05-19T07:00:58.081Z,17.75
2023-05-19T07:03:31.341Z,17.94
2023-05-19T07:06:00.359Z,17.68
2023-05-19T07:08:29.370Z,17.46
2023-05-19T07:11:00.187Z,17.50
2023-05-19T07:13:28.957Z,17.55
2023-05-19T07:15:57.550Z,17.66
2023-05-19T07:18:27.129Z,17.58
2023-05-19T07:20:55.293Z,17.97
2023-05-19T07:23:23.194Z,17.62
2023-05-19T07:25:58.010Z,17.68
2023-05-19T07:28:26.051Z,17.87
2023-05-19T07:30:54.005Z,18.10
2023-05-19T07:33:22.042Z,18.09
2023-05-19T07:35:49.957Z,18.31
2023-05-19T07:38:17.831Z,18.01
2023-05-19T07:40:45.722Z,18.33
2023-05-19T07:43:13.769Z,18.29
2023-05-19T07:45:41.799Z,18.04
2023-05-19T07:48:09.825Z,18.15
2023-05-19T07:50:37.843Z,18.34
2023-05-19T07:53:05.696Z,18.46
2023-05-19T07:55:33.663Z,18.23
2023-05-19T07:58:01.655Z,18.18
2023-05-19T08:00:29.700Z,18.09
2023-05-19T08:02:57.770Z,18.08
2023-05-19T08:05:26.294Z,18.21
2023-05-19T08:07:54.168Z,18.31
2023-05-19T08:10:22.191Z,18.19
2023-05-19T08:12:50.119Z,17.73
2023-05-19T08:15:19.217Z,17.96
2023-05-19T08:17:47.203Z,17.75
2023-05-19T08:20:15.253Z,18.19
2023-05-19T08:22:43.168Z,18.82
2023-05-19T08:25:11.963Z,18.95
2023-05-19T08:27:39.867Z,18.18
2023-05-19T08:30:08.340Z,18.12
2023-05-19T08:32:36.555Z,18.23
2023-05-19T08:35:04.700Z,18.40
2023-05-19T08:37:34.094Z,18.47
2023-05-19T08:40:04.765Z,18.74
2023-05-19T08:42:34.057Z,19.36
2023-05-19T08:45:03.444Z,18.85
2023-05-19T08:47:33.352Z,19.22
2023-05-19T08:50:07.813Z,18.61
2023-05-19T08:52:52.513Z,18.50
2023-05-19T08:55:31.434Z,19.06
2023-05-19T08:58:01.902Z,18.79
2023-05-19T09:00:30.668Z,18.32
2023-05-19T09:03:16.866Z,18.77
2023-05-19T09:05:47.051Z,18.93
2023-05-19T09:08:15.182Z,19.18
2023-05-19T09:10:43.022Z,18.88
2023-05-19T09:13:11.039Z,18.73
2023-05-19T09:15:41.486Z,18.79
2023-05-19T09:18:10.724Z,18.89
2023-05-19T09:20:40.832Z,18.62
2023-05-19T09:23:16.717Z,18.45
2023-05-19T09:25:52.051Z,18.71
2023-05-19T09:28:30.757Z,18.59
2023-05-19T09:31:09.443Z,18.90
2023-05-19T09:33:45.590Z,18.60
2023-05-19T09:36:14.360Z,18.75
2023-05-19T09:38:42.797Z,18.54
2023-05-19T09:41:11.058Z,18.62
2023-05-19T09:43:38.958Z,18.49
2023-05-19T09:46:11.868Z,18.53
2023-05-19T09:48:40.838Z,18.92
2023-05-19T09:51:11.065Z,18.86
2023-05-19T09:53:39.507Z,18.95
2023-05-19T09:56:08.982Z,19.18
2023-05-19T09:58:37.876Z,19.15
2023-05-19T10:01:06.686Z,19.06
2023-05-19T10:03:35.213Z,19.83
2023-05-19T10:06:05.760Z,19.36
2023-05-19T10:08:34.418Z,19.82
2023-05-19T10:11:03.436Z,20.04
2023-05-19T10:13:32.282Z,19.96
2023-05-19T10:16:01.072Z,20.04
2023-05-19T10:18:30.933Z,19.91
2023-05-19T10:21:00.801Z,20.26
2023-05-19T10:23:28.853Z,20.31
2023-05-19T10:26:00.061Z,19.75
2023-05-19T10:28:37.535Z,19.79
2023-05-19T10:31:09.799Z,19.85
2023-05-19T10:34:07.870Z,20.31
2023-05-19T10:36:48.467Z,19.80
2023-05-19T10:39:38.246Z,19.99
2023-05-19T10:42:37.061Z,19.79
2023-05-19T10:45:20.436Z,19.18
2023-05-19T10:47:51.671Z,18.70
2023-05-19T10:50:20.993Z,19.24
2023-05-19T10:52:56.608Z,18.80
2023-05-19T10:55:47.955Z,18.87
2023-05-19T10:58:16.126Z,19.07
2023-05-19T11:00:44.075Z,19.24
2023-05-19T11:03:14.088Z,19.40
2023-05-19T11:05:45.765Z,18.98
2023-05-19T11:08:13.805Z,19.06
2023-05-19T11:10:46.447Z,18.59
2023-05-19T11:13:23.448Z,18.75
2023-05-19T11:15:52.276Z,19.29
2023-05-19T11:18:21.550Z,19.37
2023-05-19T11:20:58.250Z,19.58
2023-05-19T11:23:26.506Z,19.55
2023-05-19T11:25:54.653Z,19.40
2023-05-19T11:28:28.442Z,19.89
2023-05-19T11:30:59.361Z,19.95
2023-05-19T11:33:27.606Z,19.90
2023-05-19T11:36:00.382Z,19.91
2023-05-19T11:38:30.497Z,19.93
2023-05-19T11:40:58.796Z,19.94
2023-05-19T11:43:27.060Z,19.80
2023-05-19T11:45:55.347Z,19.71
2023-05-19T11:48:24.854Z,19.63
2023-05-19T11:50:53.102Z,19.60
2023-05-19T11:53:21.235Z,19.52
2023-05-19T11:55:49.823Z,19.77
2023-05-19T11:58:18.070Z,19.92
2023-05-19T12:00:48.592Z,19.58
2023-05-19T12:03:22.194Z,19.62
2023-05-19T12:05:50.606Z,19.40
2023-05-19T12:08:19.046Z,19.49
2023-05-19T12:10:53.192Z,19.17
2023-05-19T12:13:22.909Z,19.14
2023-05-19T12:15:53.193Z,19.17
2023-05-19T12:18:21.621Z,19.21
2023-05-19T12:20:50.042Z,18.88
2023-05-19T12:23:18.376Z,19.14
2023-05-19T12:25:46.523Z,19.16
2023-05-19T12:28:16.785Z,18.95
2023-05-19T12:30:48.645Z,18.99
2023-05-19T12:33:17.283Z,19.12
2023-05-19T12:35:47.962Z,19.20
2023-05-19T12:38:16.578Z,19.10
2023-05-19T12:40:44.738Z,19.01
2023-05-19T12:43:25.527Z,19.08
2023-05-19T12:45:53.619Z,19.38
2023-05-19T12:48:24.756Z,19.17
2023-05-19T12:50:54.583Z,19.44
2023-05-19T12:53:22.848Z,19.63
2023-05-19T12:55:53.080Z,19.44
2023-05-19T12:58:23.470Z,19.25
2023-05-19T13:00:52.979Z,19.53
2023-05-19T13:03:22.348Z,19.19
2023-05-19T13:05:51.284Z,19.02
2023-05-19T13:08:21.828Z,19.29
2023-05-19T13:10:50.115Z,19.19
2023-05-19T13:13:18.710Z,19.21
2023-05-19T13:15:49.403Z,19.08
2023-05-19T13:18:17.806Z,19.12
2023-05-19T13:20:47.482Z,19.18
2023-05-19T13:23:16.827Z,18.90
2023-05-19T13:25:45.081Z,18.85
2023-05-19T13:28:14.176Z,18.99
2023-05-19T13:30:44.998Z,19.06
2023-05-19T13:33:13.520Z,18.99
2023-05-19T13:35:41.993Z,18.77
2023-05-19T13:38:11.059Z,18.89
2023-05-19T13:40:40.522Z,18.78
2023-05-19T13:43:10.201Z,18.80
2023-05-19T13:45:38.896Z,18.79
2023-05-19T13:48:07.827Z,18.50
2023-05-19T13:50:35.956Z,18.57
2023-05-19T13:53:04.241Z,18.60
2023-05-19T13:55:33.449Z,18.35
2023-05-19T13:58:01.901Z,18.22
2023-05-19T14:00:32.264Z,18.38
2023-05-19T14:03:01.193Z,18.45
2023-05-19T14:05:31.254Z,18.47
2023-05-19T14:08:01.304Z,18.36
2023-05-19T14:10:29.296Z,18.08
2023-05-19T14:15:32.543Z,18.20
2023-05-19T14:18:00.488Z,18.06
2023-05-19T14:20:29.400Z,18.07
2023-05-19T14:22:57.657Z,18.03
2023-05-19T14:25:25.657Z,18.04
2023-05-19T14:27:53.596Z,17.97
2023-05-19T14:30:21.495Z,18.05
2023-05-19T14:32:49.411Z,17.88
2023-05-19T14:35:17.466Z,17.93
2023-05-19T14:37:45.462Z,17.80
2023-05-19T14:40:13.609Z,17.88
2023-05-19T14:42:41.712Z,17.97
2023-05-19T14:45:10.199Z,17.98
2023-05-19T14:47:38.125Z,18.02
2023-05-19T14:50:06.459Z,17.95
2023-05-19T14:52:34.554Z,17.95
2023-05-19T14:55:02.503Z,17.96
2023-05-19T14:57:30.803Z,18.07
2023-05-19T14:59:58.711Z,18.18
2023-05-19T15:02:28.864Z,18.16
2023-05-19T15:04:57.714Z,18.04
2023-05-19T15:07:25.581Z,17.91
2023-05-19T15:09:53.990Z,17.93
2023-05-19T15:12:22.223Z,17.62
2023-05-19T15:14:50.307Z,17.92
2023-05-19T15:17:18.428Z,17.68
2023-05-19T15:19:46.481Z,17.75
2023-05-19T15:22:14.606Z,17.83
2023-05-19T15:24:42.519Z,17.80
2023-05-19T15:27:10.806Z,17.69
2023-05-19T15:29:38.809Z,17.78
2023-05-19T15:32:07.340Z,18.00
2023-05-19T15:34:35.612Z,17.93
2023-05-19T15:37:03.429Z,17.69
2023-05-19T15:39:31.586Z,17.65
2023-05-19T15:41:59.803Z,17.88
2023-05-19T15:44:29.022Z,17.85
2023-05-19T15:46:57.078Z,17.82
2023-05-19T15:49:25.503Z,17.73
2023-05-19T15:51:53.466Z,17.59
2023-05-19T15:54:21.473Z,17.42
2023-05-19T15:56:49.508Z,17.49
2023-05-19T15:59:17.581Z,17.65
2023-05-19T16:01:45.685Z,17.42
2023-05-19T16:04:14.389Z,17.50
2023-05-19T16:06:42.958Z,17.50
2023-05-19T16:09:10.976Z,17.49
2023-05-19T16:11:38.947Z,17.58
2023-05-19T16:14:08.103Z,17.32
2023-05-19T16:16:37.568Z,17.34
2023-05-19T16:19:05.683Z,17.39
2023-05-19T16:21:33.696Z,17.44
2023-05-19T16:24:01.662Z,17.51
2023-05-19T16:26:29.698Z,17.36
2023-05-19T16:28:57.598Z,17.38
2023-05-19T16:31:25.616Z,17.39
2023-05-19T16:33:53.632Z,17.62
2023-05-19T16:36:22.979Z,17.58
2023-05-19T16:38:50.895Z,17.72
2023-05-19T16:41:18.808Z,17.72
2023-05-19T16:43:47.108Z,17.76
2023-05-19T16:46:15.031Z,17.48
2023-05-19T16:48:42.955Z,17.40
2023-05-19T16:51:10.961Z,17.44
2023-05-19T16:53:39.904Z,17.62
2023-05-19T16:56:08.347Z,17.58
2023-05-19T16:58:36.550Z,17.50
2023-05-19T17:01:04.716Z,17.40
2023-05-19T17:03:32.814Z,17.28
2023-05-19T17:06:01.162Z,17.38
2023-05-19T17:08:29.123Z,17.51
2023-05-19T17:10:57.264Z,17.38
2023-05-19T17:13:25.237Z,17.61
2023-05-19T17:15:53.217Z,17.57
2023-05-19T17:18:21.330Z,17.62
2023-05-19T17:20:49.257Z,17.57
2023-05-19T17:23:17.381Z,17.49
2023-05-19T17:25:45.355Z,17.38
2023-05-19T17:28:13.312Z,17.41
2023-05-19T17:30:41.634Z,17.40
2023-05-19T17:33:09.627Z,17.44
2023-05-19T17:35:37.724Z,17.51
2023-05-19T17:38:05.758Z,17.41
2023-05-19T17:40:35.930Z,17.39
2023-05-19T17:43:04.017Z,17.42
2023-05-19T17:45:32.294Z,17.36
2023-05-19T17:48:00.422Z,17.44
2023-05-19T17:50:28.756Z,17.57
2023-05-19T17:52:56.952Z,17.49
2023-05-19T17:55:29.893Z,17.36
2023-05-19T17:57:58.324Z,17.27
2023-05-19T18:00:26.648Z,17.18
2023-05-19T18:02:57.139Z,17.23
2023-05-19T18:05:25.590Z,17.39
2023-05-19T18:08:18.705Z,17.44
2023-05-19T18:10:48.747Z,17.28
2023-05-19T18:13:16.679Z,17.34
2023-05-19T18:15:45.018Z,17.26
2023-05-19T18:18:13.143Z,17.17
2023-05-19T18:20:46.131Z,17.08
2023-05-19T18:23:14.458Z,17.03
2023-05-19T18:25:49.598Z,17.11
2023-05-19T18:28:17.607Z,17.16
2023-05-19T18:30:45.773Z,17.20
2023-05-19T18:33:14.772Z,17.26
2023-05-19T18:35:42.715Z,17.12
2023-05-19T18:38:10.594Z,17.09
2023-05-19T18:40:39.040Z,17.03
2023-05-19T18:43:06.932Z,17.00
2023-05-19T18:45:34.794Z,17.14
2023-05-19T18:48:02.806Z,17.14
2023-05-19T18:50:30.890Z,17.04
2023-05-19T18:52:58.897Z,17.10
2023-05-19T18:55:27.114Z,16.98
2023-05-19T18:57:55.300Z,16.97
2023-05-19T19:00:24.696Z,16.95
2023-05-19T19:02:52.733Z,17.04
2023-05-19T19:05:21.870Z,17.10
2023-05-19T19:07:50.438Z,17.24
2023-05-19T19:10:18.485Z,17.23
2023-05-19T19:12:46.620Z,17.22
2023-05-19T19:15:15.735Z,17.17
2023-05-19T19:17:46.597Z,17.21
2023-05-19T19:20:15.647Z,17.15
2023-05-19T19:22:43.988Z,17.16
2023-05-19T19:25:11.961Z,17.25
2023-05-19T19:27:44.679Z,17.24
2023-05-19T19:30:13.471Z,17.18
2023-05-19T19:32:41.451Z,17.25
2023-05-19T19:35:09.816Z,17.21
2023-05-19T19:37:37.690Z,17.34
2023-05-19T19:40:06.719Z,17.22
2023-05-19T19:42:34.803Z,17.29
2023-05-19T19:45:03.466Z,17.38
2023-05-19T19:47:32.847Z,17.30
2023-05-19T19:50:05.560Z,17.45
2023-05-19T19:52:36.358Z,17.41
2023-05-19T19:55:09.230Z,17.41
2023-05-19T19:57:38.557Z,17.37
2023-05-19T20:00:11.047Z,17.29
2023-05-19T20:03:02.652Z,17.09
2023-05-19T20:05:32.818Z,17.05
2023-05-19T20:08:03.628Z,17.05
2023-05-19T20:10:33.397Z,17.12
2023-05-19T20:13:02.342Z,17.07
2023-05-19T20:15:30.385Z,17.09
2023-05-19T20:17:58.637Z,17.15
2023-05-19T20:20:27.484Z,17.06
2023-05-19T20:22:56.457Z,17.06
2023-05-19T20:25:26.008Z,17.17
2023-05-19T20:27:54.161Z,17.25
2023-05-19T20:30:22.294Z,17.28
2023-05-19T20:32:50.529Z,17.00
2023-05-19T20:35:18.676Z,16.79
2023-05-19T20:37:48.182Z,16.40
2023-05-19T20:40:17.333Z,16.25
2023-05-19T20:42:46.939Z,16.23
2023-05-19T20:45:16.149Z,16.08
2023-05-19T20:47:45.261Z,16.17
2023-05-19T20:50:13.594Z,15.95
2023-05-19T20:52:42.039Z,16.12
2023-05-19T20:55:11.451Z,16.20
2023-05-19T20:57:40.229Z,16.13
2023-05-19T21:00:09.101Z,16.22
2023-05-19T21:02:38.137Z,16.21
2023-05-19T21:05:06.758Z,16.21
2023-05-19T21:07:34.753Z,16.19
2023-05-19T21:10:02.823Z,16.19
2023-05-19T21:12:34.370Z,16.20
2023-05-19T21:15:03.842Z,16.14
2023-05-19T21:17:32.364Z,16.19
2023-05-19T21:20:00.808Z,16.15
2023-05-19T21:22:28.706Z,16.10
2023-05-19T21:24:57.298Z,16.10
2023-05-19T21:27:25.235Z,16.12
2023-05-19T21:29:54.619Z,16.15
2023-05-19T21:32:22.707Z,16.14
2023-05-19T21:34:51.352Z,16.18
2023-05-19T21:37:20.600Z,16.23
2023-05-19T21:39:49.156Z,16.35
2023-05-19T21:42:17.629Z,16.35
2023-05-19T21:44:46.329Z,16.36
2023-05-19T21:47:14.564Z,16.30
2023-05-19T21:49:42.788Z,16.25
2023-05-19T21:52:11.409Z,16.26
2023-05-19T21:54:39.627Z,16.22
2023-05-19T21:57:07.657Z,16.19
2023-05-19T21:59:35.566Z,16.12
2023-05-19T22:02:05.167Z,16.19
2023-05-19T22:04:34.024Z,16.15
2023-05-19T22:07:02.328Z,16.19
2023-05-19T22:09:30.512Z,16.10
2023-05-19T22:11:58.443Z,16.01
2023-05-19T22:14:26.861Z,16.02
2023-05-19T22:16:55.197Z,16.02
2023-05-19T22:19:23.420Z,16.00
2023-05-19T22:22:01.835Z,16.04
2023-05-19T22:24:34.066Z,16.06
2023-05-19T22:27:02.608Z,16.05
2023-05-19T22:29:30.772Z,16.19
2023-05-19T22:31:59.056Z,16.16
2023-05-19T22:34:27.108Z,16.25
2023-05-19T22:36:55.323Z,16.24
2023-05-19T22:39:23.244Z,16.24
2023-05-19T22:41:51.504Z,16.28
2023-05-19T22:44:19.790Z,16.26
2023-05-19T22:46:47.843Z,16.28
2023-05-19T22:49:15.774Z,16.21
2023-05-19T22:51:43.731Z,16.18
2023-05-19T22:54:11.688Z,16.26
2023-05-19T22:56:39.693Z,16.23
2023-05-19T22:59:07.823Z,16.28
2023-05-19T23:01:35.981Z,16.11
2023-05-19T23:04:04.245Z,16.38
2023-05-19T23:06:32.440Z,16.35
2023-05-19T23:09:04.589Z,16.24
2023-05-19T23:11:32.686Z,16.43
2023-05-19T23:14:00.617Z,16.39
2023-05-19T23:16:28.689Z,16.45
2023-05-19T23:18:57.025Z,16.59
2023-05-19T23:21:25.193Z,16.45
2023-05-19T23:23:53.341Z,16.43
2023-05-19T23:26:21.568Z,16.47
2023-05-19T23:28:49.909Z,16.45
2023-05-19T23:31:17.952Z,16.39
2023-05-19T23:33:46.217Z,16.41
2023-05-19T23:36:14.253Z,16.55
2023-05-19T23:38:42.275Z,16.47
2023-05-19T23:41:10.365Z,16.36
2023-05-19T23:43:38.410Z,16.51
2023-05-19T23:46:06.837Z,16.42
2023-05-19T23:48:35.876Z,16.52
2023-05-19T23:51:03.957Z,16.36
2023-05-19T23:53:32.209Z,16.49
2023-05-19T23:56:00.381Z,16.48
2023-05-19T23:58:28.514Z,16.56
